createdAt,value
2022-09-02T00:00:24.318Z,36
2022-09-02T00:01:23.674Z,36
2022-09-02T00:02:32.550Z,36
2022-09-02T00:03:20.849Z,36
2022-09-02T00:04:24.831Z,36
2022-09-02T00:05:34.163Z,36
2022-09-02T00:06:28.098Z,36
2022-09-02T00:07:26.196Z,36
2022-09-02T00:08:22.695Z,36
2022-09-02T00:09:27.084Z,36
2022-09-02T00:10:28.499Z,36
2022-09-02T00:11:24.437Z,36
2022-09-02T00:12:24.948Z,36
2022-09-02T00:13:28.178Z,36
2022-09-02T00:14:24.195Z,36
2022-09-02T00:15:22.017Z,36
2022-09-02T00:16:27.898Z,36
2022-09-02T00:17:20.697Z,36
2022-09-02T00:18:23.497Z,36
2022-09-02T00:19:26.120Z,36
2022-09-02T00:20:23.508Z,36
2022-09-02T00:21:26.085Z,36
2022-09-02T00:22:20.778Z,36
2022-09-02T00:23:44.150Z,36
2022-09-02T00:24:26.606Z,36
2022-09-02T00:25:24.922Z,36
2022-09-02T00:26:28.053Z,36
2022-09-02T00:27:20.823Z,36
2022-09-02T00:28:24.192Z,36
2022-09-02T00:29:22.049Z,36
2022-09-02T00:30:25.322Z,36
2022-09-02T00:31:43.473Z,36
2022-09-02T00:32:23.251Z,36
2022-09-02T00:33:32.797Z,36
2022-09-02T00:34:25.678Z,36
2022-09-02T00:35:27.647Z,36
2022-09-02T00:36:22.708Z,36
2022-09-02T00:37:26.710Z,36
2022-09-02T00:38:26.411Z,36
2022-09-02T00:39:24.750Z,36
2022-09-02T00:40:35.269Z,36
2022-09-02T00:41:19.461Z,36
2022-09-02T00:42:28.991Z,36
2022-09-02T00:43:21.870Z,36
2022-09-02T00:44:30.358Z,36
2022-09-02T00:45:26.734Z,36
2022-09-02T00:46:22.539Z,36
2022-09-02T00:47:21.690Z,36
2022-09-02T00:48:23.250Z,36
2022-09-02T00:49:27.726Z,36
2022-09-02T00:50:23.497Z,36
2022-09-02T00:51:33.643Z,36
2022-09-02T00:52:26.376Z,36
2022-09-02T00:53:22.466Z,37
2022-09-02T00:54:25.765Z,37
2022-09-02T00:55:28.351Z,36
2022-09-02T00:56:25.017Z,36
2022-09-02T00:57:22.226Z,36
2022-09-02T00:58:31.218Z,36
2022-09-02T00:59:20.720Z,36
2022-09-02T01:00:31.298Z,36
2022-09-02T01:01:40.443Z,37
2022-09-02T01:52:27.155Z,39
2022-09-02T01:53:36.821Z,39
2022-09-02T01:54:34.621Z,39
2022-09-02T01:55:22.800Z,39
2022-09-02T02:42:23.168Z,40
2022-09-02T02:43:26.671Z,40
2022-09-02T02:44:34.782Z,39
2022-09-02T02:45:45.732Z,39
2022-09-02T02:46:23.467Z,40
2022-09-02T02:47:31.156Z,39
2022-09-02T02:48:24.619Z,39
2022-09-02T02:49:22.672Z,39
2022-09-02T02:50:35.383Z,39
2022-09-02T02:51:21.946Z,39
2022-09-02T02:52:22.214Z,39
2022-09-02T02:53:35.255Z,39
2022-09-02T02:54:34.937Z,39
2022-09-02T02:55:28.568Z,39
2022-09-02T02:56:20.308Z,38
2022-09-02T02:57:33.443Z,38
2022-09-02T02:58:27.844Z,38
2022-09-02T02:59:22.276Z,38
2022-09-02T03:00:32.495Z,38
2022-09-02T03:01:31.394Z,38
2022-09-02T03:02:22.759Z,38
2022-09-02T03:03:25.288Z,39
2022-09-02T03:04:30.445Z,39
2022-09-02T03:05:32.336Z,39
2022-09-02T03:06:26.751Z,39
2022-09-02T03:07:33.500Z,39
2022-09-02T03:08:30.834Z,39
2022-09-02T03:09:26.391Z,39
2022-09-02T03:10:20.966Z,39
2022-09-02T03:11:20.630Z,39
2022-09-02T03:12:31.254Z,39
2022-09-02T03:13:24.804Z,39
2022-09-02T03:14:21.931Z,39
2022-09-02T03:15:33.828Z,39
2022-09-02T03:16:28.594Z,39
2022-09-02T03:17:20.620Z,39
2022-09-02T03:18:26.364Z,38
2022-09-02T03:19:26.551Z,38
2022-09-02T03:20:25.302Z,38
2022-09-02T03:21:26.604Z,38
2022-09-02T03:22:31.981Z,38
2022-09-02T03:23:24.645Z,38
2022-09-02T03:24:22.194Z,38
2022-09-02T03:25:35.812Z,38
2022-09-02T03:26:22.742Z,39
2022-09-02T03:27:23.584Z,38
2022-09-02T03:28:28.802Z,38
2022-09-02T03:29:21.904Z,38
2022-09-02T03:30:26.335Z,38
2022-09-02T03:31:22.047Z,38
2022-09-02T03:32:34.992Z,38
2022-09-02T03:33:27.469Z,38
2022-09-02T03:34:23.653Z,38
2022-09-02T03:35:32.162Z,39
2022-09-02T03:36:26.651Z,38
2022-09-02T03:37:30.483Z,38
2022-09-02T03:38:21.402Z,38
2022-09-02T03:39:30.214Z,38
2022-09-02T03:40:28.159Z,39
2022-09-02T03:41:22.995Z,39
2022-09-02T03:42:35.670Z,39
2022-09-02T03:43:31.906Z,38
2022-09-02T03:44:26.236Z,38
2022-09-02T03:45:20.455Z,38
2022-09-02T03:46:30.688Z,38
2022-09-02T03:47:26.531Z,38
2022-09-02T03:48:28.677Z,38
2022-09-02T03:49:36.026Z,38
2022-09-02T03:50:28.253Z,38
2022-09-02T03:51:31.489Z,38
2022-09-02T03:52:23.842Z,38
2022-09-02T03:53:30.739Z,38
2022-09-02T03:54:32.589Z,38
2022-09-02T03:55:22.230Z,38
2022-09-02T03:56:23.648Z,38
2022-09-02T03:57:30.963Z,38
2022-09-02T03:58:24.335Z,38
2022-09-02T03:59:33.188Z,38
2022-09-02T04:00:32.525Z,38
2022-09-02T04:01:27.892Z,38
2022-09-02T04:02:23.668Z,38
2022-09-02T04:03:27.795Z,38
2022-09-02T04:04:22.879Z,38
2022-09-02T04:05:27.643Z,38
2022-09-02T04:06:21.779Z,38
2022-09-02T04:07:33.980Z,38
2022-09-02T04:08:27.920Z,38
2022-09-02T04:09:22.089Z,38
2022-09-02T04:10:35.761Z,38
2022-09-02T04:11:28.701Z,38
2022-09-02T04:12:24.811Z,38
2022-09-02T04:13:21.055Z,38
2022-09-02T04:14:26.235Z,38
2022-09-02T04:15:26.566Z,38
2022-09-02T04:16:23.500Z,38
2022-09-02T04:17:32.498Z,38
2022-09-02T04:18:29.554Z,38
2022-09-02T04:19:21.475Z,38
2022-09-02T04:20:20.649Z,38
2022-09-02T04:21:31.809Z,38
2022-09-02T04:22:21.910Z,38
2022-09-02T04:23:22.706Z,38
2022-09-02T04:24:35.981Z,38
2022-09-02T04:25:27.581Z,38
2022-09-02T04:26:26.192Z,38
2022-09-02T04:27:22.738Z,38
2022-09-02T04:28:34.035Z,38
2022-09-02T04:29:38.964Z,38
2022-09-02T04:30:25.554Z,38
2022-09-02T04:31:33.665Z,38
2022-09-02T04:32:24.695Z,38
2022-09-02T04:33:24.984Z,38
2022-09-02T04:34:24.428Z,38
2022-09-02T04:35:34.561Z,38
2022-09-02T04:36:20.139Z,38
2022-09-02T04:37:23.522Z,38
2022-09-02T04:38:36.276Z,38
2022-09-02T04:39:30.914Z,38
2022-09-02T04:40:25.472Z,39
2022-09-02T04:41:20.620Z,39
2022-09-02T04:42:19.990Z,39
2022-09-02T04:43:24.164Z,39
2022-09-02T04:44:23.971Z,39
2022-09-02T04:45:20.624Z,39
2022-09-02T04:46:34.420Z,39
2022-09-02T04:47:24.348Z,38
2022-09-02T04:48:25.046Z,38
2022-09-02T04:49:26.685Z,38
2022-09-02T04:50:26.819Z,38
2022-09-02T04:51:22.344Z,38
2022-09-02T04:52:29.247Z,39
2022-09-02T04:53:31.252Z,38
2022-09-02T04:54:22.545Z,39
2022-09-02T04:55:24.634Z,40
2022-09-02T04:56:29.025Z,40
2022-09-02T04:57:31.086Z,40
2022-09-02T04:58:22.286Z,40
2022-09-02T04:59:32.045Z,40
2022-09-02T05:00:24.324Z,40
2022-09-02T05:01:28.030Z,41
2022-09-02T05:02:22.268Z,40
2022-09-02T05:03:33.310Z,39
2022-09-02T05:04:26.193Z,39
2022-09-02T05:05:25.364Z,39
2022-09-02T05:06:43.339Z,39
2022-09-02T05:07:28.685Z,39
2022-09-02T05:08:28.051Z,38
2022-09-02T05:09:21.624Z,38
2022-09-02T05:10:36.884Z,38
2022-09-02T05:11:32.032Z,39
2022-09-02T05:12:25.861Z,39
2022-09-02T05:13:33.546Z,39
2022-09-02T05:14:30.437Z,38
2022-09-02T05:15:26.098Z,39
2022-09-02T05:16:22.808Z,39
2022-09-02T05:17:30.571Z,39
2022-09-02T05:18:26.653Z,39
2022-09-02T05:19:30.406Z,39
2022-09-02T05:20:32.658Z,39
2022-09-02T05:21:34.425Z,39
2022-09-02T05:22:29.279Z,39
2022-09-02T05:23:20.337Z,39
2022-09-02T05:24:30.994Z,39
2022-09-02T05:25:27.692Z,39
2022-09-02T05:26:22.668Z,39
2022-09-02T05:27:22.568Z,39
2022-09-02T05:28:32.756Z,39
2022-09-02T05:29:24.998Z,39
2022-09-02T05:30:27.894Z,39
2022-09-02T05:31:33.185Z,39
2022-09-02T05:32:32.413Z,39
2022-09-02T05:33:24.087Z,39
2022-09-02T05:34:30.459Z,39
2022-09-02T05:35:19.729Z,39
2022-09-02T05:36:26.519Z,39
2022-09-02T05:37:21.114Z,39
2022-09-02T05:38:23.427Z,39
2022-09-02T05:39:28.987Z,39
2022-09-02T05:40:25.698Z,39
2022-09-02T05:41:22.703Z,39
2022-09-02T05:42:24.465Z,39
2022-09-02T05:43:24.472Z,39
2022-09-02T05:44:21.830Z,39
2022-09-02T05:45:25.591Z,38
2022-09-02T05:46:27.422Z,38
2022-09-02T05:47:25.551Z,38
2022-09-02T05:48:23.753Z,39
2022-09-02T05:49:28.285Z,39
2022-09-02T05:50:26.355Z,39
2022-09-02T05:51:20.867Z,39
2022-09-02T05:52:30.449Z,39
2022-09-02T05:53:25.899Z,39
2022-09-02T05:54:22.749Z,39
2022-09-02T05:55:28.414Z,39
2022-09-02T05:56:28.368Z,39
2022-09-02T05:57:32.041Z,39
2022-09-02T05:58:20.765Z,39
2022-09-02T05:59:22.061Z,39
2022-09-02T06:00:28.918Z,39
2022-09-02T06:01:23.163Z,39
2022-09-02T06:02:29.700Z,39
2022-09-02T06:03:26.415Z,39
2022-09-02T06:04:24.437Z,39
2022-09-02T06:05:26.066Z,39
2022-09-02T06:06:26.807Z,39
2022-09-02T06:07:35.137Z,38
2022-09-02T06:08:24.852Z,38
2022-09-02T06:09:35.220Z,39
2022-09-02T06:10:19.737Z,39
2022-09-02T06:11:26.200Z,39
2022-09-02T06:12:21.218Z,39
2022-09-02T06:13:29.958Z,39
2022-09-02T06:14:27.130Z,39
2022-09-02T06:15:22.203Z,39
2022-09-02T06:16:20.951Z,38
2022-09-02T06:17:24.626Z,38
2022-09-02T06:18:24.275Z,38
2022-09-02T06:19:20.763Z,38
2022-09-02T06:20:24.083Z,38
2022-09-02T06:21:29.329Z,38
2022-09-02T06:22:24.253Z,38
2022-09-02T06:23:26.300Z,38
2022-09-02T06:24:25.622Z,37
2022-09-02T06:25:20.450Z,37
2022-09-02T06:26:20.256Z,38
2022-09-02T06:27:26.380Z,37
2022-09-02T06:28:22.653Z,38
2022-09-02T06:29:22.919Z,38
2022-09-02T06:30:32.606Z,38
2022-09-02T06:31:28.624Z,38
2022-09-02T06:32:38.870Z,38
2022-09-02T06:33:23.600Z,38
2022-09-02T06:34:32.125Z,38
2022-09-02T06:35:23.814Z,37
2022-09-02T06:36:22.664Z,37
2022-09-02T06:37:35.222Z,37
2022-09-02T06:38:30.975Z,37
2022-09-02T06:39:20.240Z,37
2022-09-02T06:40:23.442Z,37
2022-09-02T06:41:31.687Z,37
2022-09-02T06:42:22.848Z,37
2022-09-02T06:43:25.462Z,38
2022-09-02T06:44:33.411Z,37
2022-09-02T06:45:33.707Z,38
2022-09-02T06:46:25.877Z,38
2022-09-02T06:47:22.316Z,38
2022-09-02T06:48:33.503Z,38
2022-09-02T06:49:26.608Z,38
2022-09-02T06:50:24.640Z,38
2022-09-02T06:51:34.774Z,38
2022-09-02T06:52:29.425Z,38
2022-09-02T06:53:19.824Z,37
2022-09-02T06:54:21.150Z,37
2022-09-02T06:55:30.460Z,37
2022-09-02T06:56:26.398Z,37
2022-09-02T06:57:22.570Z,38
2022-09-02T06:58:21.826Z,38
2022-09-02T06:59:24.768Z,38
2022-09-02T07:00:27.000Z,38
2022-09-02T07:01:25.573Z,38
2022-09-02T07:02:32.092Z,38
2022-09-02T07:03:28.990Z,38
2022-09-02T07:04:22.458Z,38
2022-09-02T07:05:30.424Z,38
2022-09-02T07:06:29.356Z,38
2022-09-02T07:07:25.490Z,37
2022-09-02T07:08:23.269Z,38
2022-09-02T07:09:25.726Z,38
2022-09-02T07:10:21.530Z,38
2022-09-02T07:11:24.593Z,38
2022-09-02T07:12:34.336Z,38
2022-09-02T07:13:22.705Z,39
2022-09-02T07:14:25.994Z,38
2022-09-02T07:15:25.462Z,38
2022-09-02T07:16:29.170Z,39
2022-09-02T07:17:19.438Z,39
2022-09-02T07:18:24.702Z,38
2022-09-02T07:19:35.541Z,38
2022-09-02T07:20:28.630Z,38
2022-09-02T07:21:22.410Z,38
2022-09-02T07:22:20.511Z,38
2022-09-02T07:23:47.466Z,38
2022-09-02T07:24:25.148Z,39
2022-09-02T07:25:22.403Z,39
2022-09-02T07:26:35.175Z,38
2022-09-02T07:27:24.707Z,39
2022-09-02T07:28:26.155Z,39
2022-09-02T07:29:22.615Z,39
2022-09-02T07:30:34.217Z,39
2022-09-02T07:31:37.496Z,39
2022-09-02T07:32:22.652Z,39
2022-09-02T07:33:26.973Z,39
2022-09-02T07:34:30.988Z,38
2022-09-02T07:35:28.296Z,38
2022-09-02T07:36:22.420Z,38
2022-09-02T07:37:31.102Z,38
2022-09-02T07:38:21.280Z,38
2022-09-02T07:39:25.982Z,38
2022-09-02T07:40:24.871Z,38
2022-09-02T07:41:30.506Z,38
2022-09-02T07:42:25.541Z,38
2022-09-02T07:43:20.187Z,38
2022-09-02T07:44:19.929Z,38
2022-09-02T07:45:27.483Z,38
2022-09-02T07:46:40.252Z,39
2022-09-02T07:47:22.014Z,38
2022-09-02T07:48:28.539Z,38
2022-09-02T07:49:26.014Z,39
2022-09-02T07:50:23.563Z,39
2022-09-02T07:51:22.585Z,38
2022-09-02T07:52:27.278Z,38
2022-09-02T07:53:23.634Z,38
2022-09-02T07:54:26.301Z,38
2022-09-02T07:55:23.621Z,38
2022-09-02T07:56:27.569Z,38
2022-09-02T07:57:23.473Z,38
2022-09-02T07:58:25.706Z,38
2022-09-02T07:59:27.748Z,38
2022-09-02T08:00:23.647Z,37
2022-09-02T08:01:38.386Z,37
2022-09-02T08:02:23.835Z,37
2022-09-02T08:03:25.267Z,37
2022-09-02T08:04:27.451Z,37
2022-09-02T08:05:30.892Z,38
2022-09-02T08:06:33.771Z,38
2022-09-02T08:07:24.496Z,38
2022-09-02T08:08:38.907Z,38
2022-09-02T08:09:26.289Z,37
2022-09-02T08:10:20.299Z,37
2022-09-02T08:11:20.658Z,37
2022-09-02T08:12:26.329Z,37
2022-09-02T08:13:26.904Z,37
2022-09-02T08:14:20.656Z,37
2022-09-02T08:15:32.686Z,37
2022-09-02T08:16:29.832Z,37
2022-09-02T08:17:38.741Z,37
2022-09-02T08:18:26.238Z,37
2022-09-02T08:19:30.860Z,37
2022-09-02T08:20:22.146Z,37
2022-09-02T08:21:23.534Z,37
2022-09-02T08:22:39.106Z,37
2022-09-02T08:23:38.211Z,37
2022-09-02T08:24:24.460Z,37
2022-09-02T08:25:24.267Z,37
2022-09-02T08:26:35.026Z,37
2022-09-02T08:27:26.226Z,37
2022-09-02T08:28:22.657Z,37
2022-09-02T08:29:22.268Z,37
2022-09-02T08:30:34.732Z,37
2022-09-02T08:31:24.692Z,37
2022-09-02T08:32:21.335Z,37
2022-09-02T08:33:30.855Z,37
2022-09-02T08:34:30.131Z,36
2022-09-02T08:35:23.356Z,36
2022-09-02T08:36:36.550Z,36
2022-09-02T08:37:29.643Z,36
2022-09-02T08:38:25.432Z,36
2022-09-02T08:39:28.303Z,35
2022-09-02T08:40:26.769Z,35
2022-09-02T08:41:29.715Z,35
2022-09-02T08:42:26.453Z,35
2022-09-02T08:43:35.389Z,35
2022-09-02T08:44:22.444Z,35
2022-09-02T08:45:26.009Z,34
2022-09-02T08:46:20.553Z,34
2022-09-02T08:47:30.241Z,34
2022-09-02T08:48:21.220Z,34
2022-09-02T08:49:22.838Z,34
2022-09-02T08:50:34.092Z,34
2022-09-02T08:51:20.188Z,34
2022-09-02T08:52:24.710Z,34
2022-09-02T08:53:21.470Z,34
2022-09-02T08:54:32.264Z,34
2022-09-02T08:55:28.385Z,34
2022-09-02T08:56:23.852Z,34
2022-09-02T08:57:25.559Z,33
2022-09-02T08:58:31.544Z,34
2022-09-02T08:59:24.782Z,34
2022-09-02T09:00:20.856Z,34
2022-09-02T09:01:32.504Z,34
2022-09-02T09:02:33.009Z,34
2022-09-02T09:03:23.127Z,34
2022-09-02T09:04:33.448Z,34
2022-09-02T09:05:30.116Z,34
2022-09-02T09:06:31.066Z,34
2022-09-02T09:07:23.457Z,34
2022-09-02T09:08:25.065Z,35
2022-09-02T09:09:30.479Z,34
2022-09-02T09:10:24.870Z,34
2022-09-02T09:11:33.146Z,34
2022-09-02T09:12:30.360Z,33
2022-09-02T09:13:24.543Z,33
2022-09-02T09:14:29.070Z,33
2022-09-02T09:15:31.428Z,34
2022-09-02T09:16:32.140Z,34
2022-09-02T09:17:22.907Z,34
2022-09-02T09:18:20.510Z,34
2022-09-02T09:19:31.717Z,34
2022-09-02T09:20:25.913Z,34
2022-09-02T09:21:27.831Z,34
2022-09-02T09:22:21.143Z,34
2022-09-02T09:23:28.422Z,34
2022-09-02T09:24:22.555Z,34
2022-09-02T09:25:28.142Z,34
2022-09-02T09:26:19.968Z,34
2022-09-02T09:27:24.540Z,34
2022-09-02T09:28:24.751Z,33
2022-09-02T09:29:26.715Z,33
2022-09-02T09:30:26.359Z,33
2022-09-02T09:31:23.769Z,34
2022-09-02T09:32:27.690Z,34
2022-09-02T09:33:24.418Z,34
2022-09-02T09:34:26.513Z,34
2022-09-02T09:35:20.853Z,34
2022-09-02T09:36:25.769Z,34
2022-09-02T09:37:21.620Z,34
2022-09-02T09:38:23.139Z,34
2022-09-02T09:39:29.061Z,34
2022-09-02T09:40:31.731Z,35
2022-09-02T09:41:23.091Z,35
2022-09-02T09:42:21.833Z,35
2022-09-02T09:43:24.178Z,35
2022-09-02T09:44:27.944Z,35
2022-09-02T09:45:22.645Z,35
2022-09-02T09:46:32.637Z,35
2022-09-02T09:47:28.798Z,35
2022-09-02T09:48:25.596Z,35
2022-09-02T09:49:20.397Z,34
2022-09-02T09:50:27.476Z,34
2022-09-02T09:51:40.136Z,35
2022-09-02T09:52:22.284Z,35
2022-09-02T09:53:23.527Z,34
2022-09-02T09:54:22.218Z,34
2022-09-02T09:55:26.879Z,35
2022-09-02T09:56:27.287Z,34
2022-09-02T09:57:35.515Z,34
2022-09-02T09:58:29.425Z,34
2022-09-02T09:59:22.840Z,34
2022-09-02T10:00:32.683Z,34
2022-09-02T10:01:25.737Z,35
2022-09-02T10:02:26.120Z,36
2022-09-02T10:03:21.641Z,36
2022-09-02T10:04:41.748Z,37
2022-09-02T10:05:19.783Z,37
2022-09-02T10:06:22.848Z,37
2022-09-02T10:07:23.623Z,38
2022-09-02T10:08:31.939Z,39
2022-09-02T10:09:26.748Z,39
2022-09-02T10:10:21.928Z,40
2022-09-02T10:11:24.721Z,40
2022-09-02T10:12:23.030Z,42
2022-09-02T10:13:24.073Z,40
2022-09-02T10:14:29.621Z,40
2022-09-02T10:15:20.624Z,40
2022-09-02T10:16:27.998Z,41
2022-09-02T10:17:24.726Z,40
2022-09-02T10:18:34.029Z,40
2022-09-02T10:19:20.952Z,40
2022-09-02T10:20:22.624Z,39
2022-09-02T10:21:25.715Z,40
2022-09-02T10:22:37.655Z,40
2022-09-02T10:23:20.911Z,40
2022-09-02T10:24:25.324Z,40
2022-09-02T10:25:33.516Z,39
2022-09-02T10:26:28.498Z,38
2022-09-02T10:27:25.358Z,39
2022-09-02T10:28:37.876Z,39
2022-09-02T10:29:30.785Z,39
2022-09-02T10:30:25.615Z,40
2022-09-02T10:31:20.792Z,40
2022-09-02T10:32:33.499Z,39
2022-09-02T10:33:38.601Z,39
2022-09-02T10:34:22.743Z,39
2022-09-02T10:35:37.722Z,39
2022-09-02T10:36:31.390Z,39
2022-09-02T10:37:27.490Z,38
2022-09-02T10:38:23.047Z,39
2022-09-02T10:39:30.949Z,40
2022-09-02T10:40:30.075Z,40
2022-09-02T10:41:24.135Z,39
2022-09-02T10:42:20.467Z,40
2022-09-02T10:43:28.843Z,39
2022-09-02T10:44:25.750Z,40
2022-09-02T10:45:23.621Z,39
2022-09-02T10:46:34.208Z,39
2022-09-02T10:47:30.144Z,39
2022-09-02T10:48:27.025Z,39
2022-09-02T10:49:25.636Z,39
2022-09-02T10:50:32.186Z,39
2022-09-02T10:51:25.954Z,38
2022-09-02T10:52:24.476Z,38
2022-09-02T10:53:32.304Z,37
2022-09-02T10:54:27.365Z,37
2022-09-02T10:55:22.825Z,37
2022-09-02T10:56:29.082Z,38
2022-09-02T10:57:20.865Z,38
2022-09-02T10:58:26.915Z,37
2022-09-02T10:59:22.721Z,37
2022-09-02T11:00:24.973Z,38
2022-09-02T11:01:26.720Z,37
2022-09-02T11:02:23.162Z,38
2022-09-02T11:03:33.276Z,37
2022-09-02T11:04:25.945Z,37
2022-09-02T11:05:26.473Z,37
2022-09-02T11:06:40.464Z,38
2022-09-02T11:07:28.349Z,39
2022-09-02T11:08:22.495Z,39
2022-09-02T11:09:30.214Z,38
2022-09-02T11:10:20.513Z,40
2022-09-02T11:11:33.083Z,41
2022-09-02T11:12:24.833Z,40
2022-09-02T11:13:24.301Z,41
2022-09-02T11:14:33.150Z,41
2022-09-02T11:15:26.873Z,44
2022-09-02T11:16:25.567Z,42
2022-09-02T11:17:19.966Z,42
2022-09-02T11:18:28.830Z,44
2022-09-02T11:19:28.047Z,42
2022-09-02T11:20:23.457Z,42
2022-09-02T11:21:35.378Z,41
2022-09-02T11:22:28.284Z,41
2022-09-02T11:23:28.044Z,41
2022-09-02T11:24:27.240Z,41
2022-09-02T11:25:28.605Z,40
2022-09-02T11:26:28.104Z,41
2022-09-02T11:27:41.763Z,40
2022-09-02T11:28:23.115Z,41
2022-09-02T11:29:29.982Z,41
2022-09-02T11:30:25.352Z,41
2022-09-02T11:31:34.601Z,41
2022-09-02T11:32:30.827Z,41
2022-09-02T11:33:24.948Z,41
2022-09-02T11:34:22.513Z,41
2022-09-02T11:35:27.135Z,41
2022-09-02T11:36:33.273Z,41
2022-09-02T11:37:22.728Z,41
2022-09-02T11:38:23.529Z,41
2022-09-02T11:39:30.657Z,40
2022-09-02T11:40:36.356Z,40
2022-09-02T11:41:37.511Z,40
2022-09-02T11:42:24.707Z,40
2022-09-02T11:43:27.201Z,40
2022-09-02T11:44:26.886Z,40
2022-09-02T11:45:30.015Z,40
2022-09-02T11:46:24.912Z,40
2022-09-02T11:47:26.128Z,39
2022-09-02T11:48:23.269Z,39
2022-09-02T11:49:31.305Z,39
2022-09-02T11:50:23.539Z,39
2022-09-02T11:51:27.923Z,39
2022-09-02T11:52:32.742Z,39
2022-09-02T11:53:28.196Z,39
2022-09-02T11:54:29.058Z,39
2022-09-02T11:55:23.293Z,38
2022-09-02T11:56:34.117Z,39
2022-09-02T11:57:20.535Z,38
2022-09-02T11:58:22.477Z,39
2022-09-02T11:59:35.876Z,39
2022-09-02T12:00:28.509Z,39
2022-09-02T12:01:24.915Z,38
2022-09-02T12:02:23.133Z,38
2022-09-02T12:03:52.191Z,38
2022-09-02T12:05:00.942Z,38
2022-09-02T12:05:24.127Z,39
2022-09-02T12:06:32.958Z,38
2022-09-02T12:07:33.976Z,38
2022-09-02T12:08:25.921Z,38
2022-09-02T12:09:20.765Z,38
2022-09-02T12:10:30.871Z,38
2022-09-02T12:11:35.025Z,39
2022-09-02T12:12:24.052Z,39
2022-09-02T12:13:20.286Z,38
2022-09-02T12:14:31.817Z,38
2022-09-02T12:15:22.130Z,39
2022-09-02T12:16:21.839Z,38
2022-09-02T12:17:32.415Z,38
2022-09-02T12:18:26.828Z,38
2022-09-02T12:19:22.819Z,39
2022-09-02T12:20:24.390Z,39
2022-09-02T12:21:30.592Z,39
2022-09-02T12:22:34.384Z,38
2022-09-02T12:23:22.253Z,39
2022-09-02T12:24:30.699Z,39
2022-09-02T12:25:30.119Z,38
2022-09-02T12:26:20.144Z,38
2022-09-02T12:27:28.693Z,38
2022-09-02T12:28:25.271Z,39
2022-09-02T12:29:26.675Z,38
2022-09-02T12:30:21.025Z,38
2022-09-02T12:31:23.936Z,38
2022-09-02T12:32:27.941Z,39
2022-09-02T12:33:43.347Z,38
2022-09-02T12:34:48.134Z,38
2022-09-02T12:35:27.414Z,38
2022-09-02T12:36:26.105Z,39
2022-09-02T12:37:21.824Z,39
2022-09-02T12:38:29.069Z,39
2022-09-02T12:39:32.198Z,38
2022-09-02T12:40:22.738Z,38
2022-09-02T12:41:35.934Z,38
2022-09-02T12:42:31.882Z,38
2022-09-02T12:43:24.630Z,39
2022-09-02T12:44:37.560Z,38
2022-09-02T12:45:33.052Z,38
2022-09-02T12:46:23.519Z,38
2022-09-02T12:47:22.792Z,39
2022-09-02T12:48:40.929Z,39
2022-09-02T12:49:30.574Z,38
2022-09-02T12:50:28.669Z,39
2022-09-02T12:51:21.639Z,39
2022-09-02T12:52:30.929Z,38
2022-09-02T12:53:28.979Z,38
2022-09-02T12:54:26.762Z,38
2022-09-02T12:55:34.007Z,38
2022-09-02T12:56:30.340Z,38
2022-09-02T12:57:25.745Z,39
2022-09-02T12:58:22.682Z,38
2022-09-02T12:59:33.596Z,38
2022-09-02T13:00:26.444Z,38
2022-09-02T13:01:27.102Z,38
2022-09-02T13:02:25.643Z,38
2022-09-02T13:03:28.909Z,38
2022-09-02T13:04:26.399Z,37
2022-09-02T13:05:22.077Z,37
2022-09-02T13:06:23.158Z,38
2022-09-02T13:07:27.229Z,37
2022-09-02T13:08:26.753Z,38
2022-09-02T13:09:21.390Z,37
2022-09-02T13:10:29.032Z,38
2022-09-02T13:11:25.687Z,38
2022-09-02T13:12:20.540Z,38
2022-09-02T13:13:21.176Z,38
2022-09-02T13:14:27.602Z,37
2022-09-02T13:15:23.395Z,38
2022-09-02T13:16:28.293Z,38
2022-09-02T13:17:36.953Z,37
2022-09-02T13:18:26.363Z,37
2022-09-02T13:19:20.491Z,36
2022-09-02T13:20:27.064Z,36
2022-09-02T13:21:24.658Z,36
2022-09-02T13:22:25.189Z,37
2022-09-02T13:23:35.202Z,36
2022-09-02T13:24:24.294Z,36
2022-09-02T13:25:25.049Z,37
2022-09-02T13:26:45.605Z,37
2022-09-02T13:27:27.182Z,37
2022-09-02T13:28:43.690Z,36
2022-09-02T13:29:21.385Z,37
2022-09-02T13:30:35.529Z,37
2022-09-02T13:31:21.113Z,37
2022-09-02T13:32:27.775Z,36
2022-09-02T13:33:21.640Z,36
2022-09-02T13:34:31.689Z,36
2022-09-02T13:35:28.027Z,35
2022-09-02T13:36:24.694Z,37
2022-09-02T13:37:32.836Z,37
2022-09-02T13:38:27.072Z,37
2022-09-02T13:39:26.454Z,37
2022-09-02T13:40:21.195Z,37
2022-09-02T13:41:34.741Z,38
2022-09-02T13:42:26.615Z,37
2022-09-02T13:43:23.749Z,37
2022-09-02T13:44:23.029Z,37
2022-09-02T13:45:28.928Z,37
2022-09-02T13:46:28.235Z,37
2022-09-02T13:47:20.869Z,37
2022-09-02T13:48:30.606Z,37
2022-09-02T13:49:23.411Z,37
2022-09-02T13:50:22.698Z,38
2022-09-02T13:51:25.803Z,37
2022-09-02T13:53:17.728Z,38
2022-09-02T13:53:49.131Z,38
2022-09-02T13:54:22.603Z,38
2022-09-02T13:54:23.856Z,38
2022-09-02T13:55:32.044Z,38
2022-09-02T13:56:26.593Z,37
2022-09-02T13:57:24.259Z,38
2022-09-02T13:58:29.710Z,38
2022-09-02T13:59:22.438Z,38
2022-09-02T14:00:24.695Z,38
2022-09-02T14:01:21.317Z,38
2022-09-02T14:02:22.363Z,39
2022-09-02T14:03:27.862Z,38
2022-09-02T14:04:23.829Z,38
2022-09-02T14:05:33.630Z,38
2022-09-02T14:06:30.904Z,38
2022-09-02T14:07:19.361Z,38
2022-09-02T14:08:20.579Z,38
2022-09-02T14:09:25.417Z,39
2022-09-02T14:10:26.558Z,38
2022-09-02T14:11:26.906Z,38
2022-09-02T14:12:35.476Z,38
2022-09-02T14:13:33.670Z,37
2022-09-02T14:14:27.826Z,38
2022-09-02T14:15:21.513Z,37
2022-09-02T14:16:33.044Z,37
2022-09-02T14:17:27.529Z,38
2022-09-02T14:18:25.995Z,38
2022-09-02T14:19:33.053Z,38
2022-09-02T14:20:31.070Z,39
2022-09-02T14:21:33.588Z,38
2022-09-02T14:22:21.125Z,37
2022-09-02T14:23:33.508Z,38
2022-09-02T14:24:28.802Z,39
2022-09-02T14:25:28.078Z,37
2022-09-02T14:26:36.156Z,37
2022-09-02T14:27:29.903Z,39
2022-09-02T14:28:23.001Z,38
2022-09-02T14:29:25.553Z,37
2022-09-02T14:30:31.093Z,37
2022-09-02T14:31:30.105Z,37
2022-09-02T14:32:23.791Z,39
2022-09-02T14:33:32.574Z,38
2022-09-02T14:34:28.197Z,37
2022-09-02T14:35:26.448Z,38
2022-09-02T14:36:24.142Z,39
2022-09-02T14:37:23.981Z,38
2022-09-02T14:38:26.871Z,37
2022-09-02T14:39:26.756Z,37
2022-09-02T14:40:20.016Z,37
2022-09-02T14:41:32.311Z,38
2022-09-02T14:42:29.304Z,37
2022-09-02T14:43:21.085Z,37
2022-09-02T14:44:25.953Z,37
2022-09-02T14:45:26.724Z,37
2022-09-02T14:46:25.214Z,38
2022-09-02T14:47:20.810Z,37
2022-09-02T14:48:30.141Z,38
2022-09-02T14:49:25.252Z,38
2022-09-02T14:50:21.939Z,38
2022-09-02T14:51:30.769Z,36
2022-09-02T14:52:24.497Z,37
2022-09-02T14:53:23.730Z,37
2022-09-02T14:54:24.300Z,36
2022-09-02T14:55:21.279Z,36
2022-09-02T14:56:21.646Z,36
2022-09-02T14:57:23.363Z,36
2022-09-02T14:58:31.209Z,36
2022-09-02T14:59:31.582Z,37
2022-09-02T15:00:34.817Z,36
2022-09-02T15:01:26.279Z,36
2022-09-02T15:02:27.636Z,36
2022-09-02T15:03:25.655Z,36
2022-09-02T15:04:21.441Z,36
2022-09-02T15:05:22.823Z,36
2022-09-02T15:06:27.094Z,36
2022-09-02T15:07:26.815Z,36
2022-09-02T15:08:30.927Z,35
2022-09-02T15:09:29.181Z,36
2022-09-02T15:10:25.565Z,36
2022-09-02T15:11:21.030Z,36
2022-09-02T15:12:26.826Z,36
2022-09-02T15:13:27.059Z,36
2022-09-02T15:14:23.377Z,36
2022-09-02T15:15:24.068Z,36
2022-09-02T15:16:29.080Z,36
2022-09-02T15:17:26.266Z,36
2022-09-02T15:18:21.335Z,36
2022-09-02T15:19:32.218Z,36
2022-09-02T15:20:29.033Z,36
2022-09-02T15:21:24.383Z,36
2022-09-02T15:22:28.022Z,36
2022-09-02T15:23:21.670Z,36
2022-09-02T15:24:24.619Z,36
2022-09-02T15:25:24.936Z,36
2022-09-02T15:26:32.804Z,36
2022-09-02T15:27:26.995Z,35
2022-09-02T15:28:24.079Z,36
2022-09-02T15:29:37.871Z,36
2022-09-02T15:30:27.913Z,36
2022-09-02T15:31:25.116Z,36
2022-09-02T15:32:21.386Z,35
2022-09-02T15:33:21.847Z,35
2022-09-02T15:34:20.817Z,35
2022-09-02T15:35:23.034Z,35
2022-09-02T15:36:29.961Z,35
2022-09-02T15:37:28.831Z,35
2022-09-02T15:38:22.661Z,35
2022-09-02T15:39:21.160Z,35
2022-09-02T15:40:24.606Z,35
2022-09-02T15:41:22.729Z,35
2022-09-02T15:42:23.097Z,35
2022-09-02T15:43:32.761Z,35
2022-09-02T15:44:32.020Z,35
2022-09-02T15:45:27.034Z,35
2022-09-02T15:46:21.409Z,35
2022-09-02T15:47:34.148Z,35
2022-09-02T15:48:21.134Z,35
2022-09-02T15:49:24.783Z,35
2022-09-02T15:50:34.445Z,35